sensor_id;sensor_type;location;lat;lon;timestamp;P1;durP1;ratioP1;P2;durP2;ratioP2
11086;SDS011;5597;47.588;9.642;2023-03-01T00:00:52;19.37;;;14.53;;
11086;SDS011;5597;47.588;9.642;2023-03-01T00:03:17;18.63;;;14.37;;
11086;SDS011;5597;47.588;9.642;2023-03-01T00:05:44;17.70;;;13.83;;
11086;SDS011;5597;47.588;9.642;2023-03-01T00:08:10;18.57;;;14.63;;
11086;SDS011;5597;47.588;9.642;2023-03-01T00:10:36;20.07;;;14.67;;
11086;SDS011;5597;47.588;9.642;2023-03-01T00:13:01;18.27;;;14.10;;
11086;SDS011;5597;47.588;9.642;2023-03-01T00:15:27;19.67;;;14.90;;
11086;SDS011;5597;47.588;9.642;2023-03-01T00:17:53;17.77;;;14.03;;
11086;SDS011;5597;47.588;9.642;2023-03-01T00:20:18;22.27;;;16.07;;
11086;SDS011;5597;47.588;9.642;2023-03-01T00:22:44;20.93;;;16.07;;
11086;SDS011;5597;47.588;9.642;2023-03-01T00:25:09;19.57;;;15.10;;
11086;SDS011;5597;47.588;9.642;2023-03-01T00:27:35;20.67;;;16.17;;
11086;SDS011;5597;47.588;9.642;2023-03-01T00:30:00;18.20;;;14.57;;
11086;SDS011;5597;47.588;9.642;2023-03-01T00:32:26;17.60;;;14.33;;
11086;SDS011;5597;47.588;9.642;2023-03-01T00:34:52;21.50;;;14.53;;
11086;SDS011;5597;47.588;9.642;2023-03-01T00:37:23;18.37;;;13.93;;
11086;SDS011;5597;47.588;9.642;2023-03-01T00:39:49;19.97;;;13.83;;
11086;SDS011;5597;47.588;9.642;2023-03-01T00:42:15;19.00;;;13.83;;
11086;SDS011;5597;47.588;9.642;2023-03-01T00:44:41;19.17;;;14.27;;
11086;SDS011;5597;47.588;9.642;2023-03-01T00:47:07;16.93;;;13.27;;
11086;SDS011;5597;47.588;9.642;2023-03-01T00:49:33;18.07;;;13.00;;
11086;SDS011;5597;47.588;9.642;2023-03-01T00:51:59;18.03;;;13.37;;
11086;SDS011;5597;47.588;9.642;2023-03-01T00:54:24;18.83;;;13.27;;
11086;SDS011;5597;47.588;9.642;2023-03-01T00:56:50;16.30;;;12.87;;
11086;SDS011;5597;47.588;9.642;2023-03-01T00:59:15;16.30;;;12.03;;
11086;SDS011;5597;47.588;9.642;2023-03-01T01:01:41;15.83;;;12.00;;
11086;SDS011;5597;47.588;9.642;2023-03-01T01:04:08;15.37;;;11.40;;
11086;SDS011;5597;47.588;9.642;2023-03-01T01:06:40;15.37;;;11.73;;
11086;SDS011;5597;47.588;9.642;2023-03-01T01:09:11;18.53;;;13.43;;
11086;SDS011;5597;47.588;9.642;2023-03-01T01:11:42;15.20;;;11.13;;
11086;SDS011;5597;47.588;9.642;2023-03-01T01:14:15;16.77;;;11.97;;
11086;SDS011;5597;47.588;9.642;2023-03-01T01:16:42;16.13;;;12.03;;
11086;SDS011;5597;47.588;9.642;2023-03-01T01:19:08;15.83;;;12.10;;
11086;SDS011;5597;47.588;9.642;2023-03-01T01:21:35;14.93;;;11.63;;
11086;SDS011;5597;47.588;9.642;2023-03-01T01:24:02;16.03;;;11.97;;
11086;SDS011;5597;47.588;9.642;2023-03-01T01:26:29;16.50;;;12.43;;
11086;SDS011;5597;47.588;9.642;2023-03-01T01:28:56;15.47;;;11.87;;
11086;SDS011;5597;47.588;9.642;2023-03-01T01:31:23;15.97;;;12.73;;
11086;SDS011;5597;47.588;9.642;2023-03-01T01:33:49;17.07;;;12.43;;
11086;SDS011;5597;47.588;9.642;2023-03-01T01:36:15;17.87;;;13.13;;
11086;SDS011;5597;47.588;9.642;2023-03-01T01:38:41;14.93;;;11.40;;
11086;SDS011;5597;47.588;9.642;2023-03-01T01:41:08;15.30;;;11.33;;
11086;SDS011;5597;47.588;9.642;2023-03-01T01:43:37;14.83;;;11.17;;
11086;SDS011;5597;47.588;9.642;2023-03-01T01:48:54;14.73;;;11.70;;
11086;SDS011;5597;47.588;9.642;2023-03-01T01:51:25;17.67;;;13.47;;
11086;SDS011;5597;47.588;9.642;2023-03-01T01:53:58;17.77;;;12.73;;
11086;SDS011;5597;47.588;9.642;2023-03-01T01:56:26;17.03;;;12.80;;
11086;SDS011;5597;47.588;9.642;2023-03-01T01:58:53;17.77;;;13.07;;
11086;SDS011;5597;47.588;9.642;2023-03-01T02:01:20;16.90;;;13.07;;
11086;SDS011;5597;47.588;9.642;2023-03-01T02:03:45;19.10;;;13.40;;
11086;SDS011;5597;47.588;9.642;2023-03-01T02:06:15;17.63;;;12.73;;
11086;SDS011;5597;47.588;9.642;2023-03-01T02:08:59;17.80;;;13.57;;
11086;SDS011;5597;47.588;9.642;2023-03-01T02:11:30;19.67;;;14.20;;
11086;SDS011;5597;47.588;9.642;2023-03-01T02:13:57;18.27;;;13.47;;
11086;SDS011;5597;47.588;9.642;2023-03-01T02:16:23;16.03;;;12.67;;
11086;SDS011;5597;47.588;9.642;2023-03-01T02:18:50;16.03;;;13.07;;
11086;SDS011;5597;47.588;9.642;2023-03-01T02:21:19;17.57;;;13.77;;
11086;SDS011;5597;47.588;9.642;2023-03-01T02:23:56;18.57;;;13.97;;
11086;SDS011;5597;47.588;9.642;2023-03-01T02:26:33;15.50;;;11.83;;
11086;SDS011;5597;47.588;9.642;2023-03-01T02:29:22;16.07;;;12.43;;
11086;SDS011;5597;47.588;9.642;2023-03-01T02:31:49;16.97;;;12.20;;
11086;SDS011;5597;47.588;9.642;2023-03-01T02:34:21;16.63;;;12.33;;
11086;SDS011;5597;47.588;9.642;2023-03-01T02:37:05;16.03;;;11.67;;
11086;SDS011;5597;47.588;9.642;2023-03-01T02:39:39;17.10;;;13.13;;
11086;SDS011;5597;47.588;9.642;2023-03-01T02:42:09;17.70;;;13.73;;
11086;SDS011;5597;47.588;9.642;2023-03-01T02:44:37;17.43;;;12.90;;
11086;SDS011;5597;47.588;9.642;2023-03-01T02:47:03;18.63;;;13.73;;
11086;SDS011;5597;47.588;9.642;2023-03-01T02:49:32;20.23;;;14.67;;
11086;SDS011;5597;47.588;9.642;2023-03-01T02:54:33;19.33;;;14.23;;
11086;SDS011;5597;47.588;9.642;2023-03-01T02:57:09;17.30;;;13.80;;
11086;SDS011;5597;47.588;9.642;2023-03-01T02:59:35;20.60;;;15.13;;
11086;SDS011;5597;47.588;9.642;2023-03-01T03:02:08;19.80;;;14.43;;
11086;SDS011;5597;47.588;9.642;2023-03-01T03:05:01;20.30;;;14.40;;
11086;SDS011;5597;47.588;9.642;2023-03-01T03:07:31;20.97;;;14.80;;
11086;SDS011;5597;47.588;9.642;2023-03-01T03:09:58;20.10;;;14.40;;
11086;SDS011;5597;47.588;9.642;2023-03-01T03:12:23;20.60;;;15.30;;
11086;SDS011;5597;47.588;9.642;2023-03-01T03:14:49;19.40;;;14.63;;
11086;SDS011;5597;47.588;9.642;2023-03-01T03:17:14;18.03;;;14.00;;
11086;SDS011;5597;47.588;9.642;2023-03-01T03:19:40;20.03;;;14.63;;
11086;SDS011;5597;47.588;9.642;2023-03-01T03:22:05;21.43;;;13.97;;
11086;SDS011;5597;47.588;9.642;2023-03-01T03:24:33;19.13;;;13.53;;
11086;SDS011;5597;47.588;9.642;2023-03-01T03:27:03;18.87;;;13.73;;
11086;SDS011;5597;47.588;9.642;2023-03-01T03:29:30;17.33;;;13.70;;
11086;SDS011;5597;47.588;9.642;2023-03-01T03:31:55;19.17;;;13.97;;
11086;SDS011;5597;47.588;9.642;2023-03-01T03:34:21;20.40;;;14.47;;
11086;SDS011;5597;47.588;9.642;2023-03-01T03:36:47;18.53;;;13.10;;
11086;SDS011;5597;47.588;9.642;2023-03-01T03:39:12;16.87;;;12.80;;
11086;SDS011;5597;47.588;9.642;2023-03-01T03:41:38;18.37;;;13.57;;
11086;SDS011;5597;47.588;9.642;2023-03-01T03:44:04;19.13;;;14.00;;
11086;SDS011;5597;47.588;9.642;2023-03-01T03:46:29;17.97;;;13.70;;
11086;SDS011;5597;47.588;9.642;2023-03-01T03:48:55;17.93;;;13.37;;
11086;SDS011;5597;47.588;9.642;2023-03-01T03:51:20;18.47;;;13.50;;
11086;SDS011;5597;47.588;9.642;2023-03-01T03:53:47;21.30;;;14.63;;
11086;SDS011;5597;47.588;9.642;2023-03-01T03:56:13;18.97;;;13.67;;
11086;SDS011;5597;47.588;9.642;2023-03-01T03:58:39;17.23;;;13.50;;
11086;SDS011;5597;47.588;9.642;2023-03-01T04:01:05;18.57;;;13.77;;
11086;SDS011;5597;47.588;9.642;2023-03-01T04:03:31;18.00;;;13.33;;
11086;SDS011;5597;47.588;9.642;2023-03-01T04:05:58;18.03;;;13.63;;
11086;SDS011;5597;47.588;9.642;2023-03-01T04:08:24;19.07;;;13.70;;
11086;SDS011;5597;47.588;9.642;2023-03-01T04:10:51;17.27;;;12.47;;
11086;SDS011;5597;47.588;9.642;2023-03-01T04:13:22;19.90;;;14.17;;
11086;SDS011;5597;47.588;9.642;2023-03-01T04:15:50;18.70;;;13.67;;
11086;SDS011;5597;47.588;9.642;2023-03-01T04:18:17;19.57;;;13.73;;
11086;SDS011;5597;47.588;9.642;2023-03-01T04:20:44;19.57;;;13.47;;
11086;SDS011;5597;47.588;9.642;2023-03-01T04:23:19;19.10;;;13.50;;
11086;SDS011;5597;47.588;9.642;2023-03-01T04:25:47;18.20;;;13.33;;
11086;SDS011;5597;47.588;9.642;2023-03-01T04:28:21;14.87;;;11.90;;
11086;SDS011;5597;47.588;9.642;2023-03-01T04:30:50;21.70;;;15.53;;
11086;SDS011;5597;47.588;9.642;2023-03-01T04:33:16;21.33;;;15.07;;
11086;SDS011;5597;47.588;9.642;2023-03-01T04:35:42;20.33;;;15.37;;
11086;SDS011;5597;47.588;9.642;2023-03-01T04:38:08;20.80;;;15.03;;
11086;SDS011;5597;47.588;9.642;2023-03-01T04:40:34;21.20;;;14.70;;
11086;SDS011;5597;47.588;9.642;2023-03-01T04:43:00;20.87;;;14.80;;
11086;SDS011;5597;47.588;9.642;2023-03-01T04:45:26;21.03;;;14.80;;
11086;SDS011;5597;47.588;9.642;2023-03-01T04:47:52;22.10;;;15.63;;
11086;SDS011;5597;47.588;9.642;2023-03-01T04:50:18;21.57;;;16.37;;
11086;SDS011;5597;47.588;9.642;2023-03-01T04:52:48;21.73;;;15.83;;
11086;SDS011;5597;47.588;9.642;2023-03-01T04:55:14;20.67;;;14.83;;
11086;SDS011;5597;47.588;9.642;2023-03-01T04:57:40;20.60;;;14.80;;
11086;SDS011;5597;47.588;9.642;2023-03-01T05:00:06;21.93;;;16.30;;
11086;SDS011;5597;47.588;9.642;2023-03-01T05:02:48;23.77;;;16.50;;
11086;SDS011;5597;47.588;9.642;2023-03-01T05:05:18;20.73;;;16.03;;
11086;SDS011;5597;47.588;9.642;2023-03-01T05:07:50;22.27;;;15.77;;
11086;SDS011;5597;47.588;9.642;2023-03-01T05:10:27;20.77;;;15.23;;
11086;SDS011;5597;47.588;9.642;2023-03-01T05:12:54;22.30;;;15.23;;
11086;SDS011;5597;47.588;9.642;2023-03-01T05:15:22;19.90;;;14.47;;
11086;SDS011;5597;47.588;9.642;2023-03-01T05:17:50;23.00;;;16.00;;
11086;SDS011;5597;47.588;9.642;2023-03-01T05:20:17;21.80;;;15.77;;
11086;SDS011;5597;47.588;9.642;2023-03-01T05:22:43;22.60;;;16.33;;
11086;SDS011;5597;47.588;9.642;2023-03-01T05:25:08;22.87;;;15.70;;
11086;SDS011;5597;47.588;9.642;2023-03-01T05:27:34;22.43;;;16.00;;
11086;SDS011;5597;47.588;9.642;2023-03-01T05:30:01;22.33;;;16.23;;
11086;SDS011;5597;47.588;9.642;2023-03-01T05:32:39;21.13;;;15.10;;
11086;SDS011;5597;47.588;9.642;2023-03-01T05:35:06;21.57;;;15.63;;
11086;SDS011;5597;47.588;9.642;2023-03-01T05:37:31;24.23;;;16.77;;
11086;SDS011;5597;47.588;9.642;2023-03-01T05:39:57;22.30;;;15.80;;
11086;SDS011;5597;47.588;9.642;2023-03-01T05:42:23;20.63;;;15.10;;
11086;SDS011;5597;47.588;9.642;2023-03-01T05:44:48;20.37;;;14.87;;
11086;SDS011;5597;47.588;9.642;2023-03-01T05:47:14;21.37;;;15.60;;
11086;SDS011;5597;47.588;9.642;2023-03-01T05:49:39;20.93;;;15.83;;
11086;SDS011;5597;47.588;9.642;2023-03-01T05:52:05;19.53;;;14.60;;
11086;SDS011;5597;47.588;9.642;2023-03-01T05:54:30;20.13;;;14.87;;
11086;SDS011;5597;47.588;9.642;2023-03-01T05:56:56;19.77;;;14.57;;
11086;SDS011;5597;47.588;9.642;2023-03-01T05:59:21;20.63;;;14.40;;
11086;SDS011;5597;47.588;9.642;2023-03-01T06:01:47;20.47;;;15.07;;
11086;SDS011;5597;47.588;9.642;2023-03-01T06:04:13;19.67;;;14.33;;
11086;SDS011;5597;47.588;9.642;2023-03-01T06:06:38;19.87;;;13.70;;
11086;SDS011;5597;47.588;9.642;2023-03-01T06:09:04;20.50;;;14.20;;
11086;SDS011;5597;47.588;9.642;2023-03-01T06:11:33;21.07;;;15.70;;
11086;SDS011;5597;47.588;9.642;2023-03-01T06:13:59;17.40;;;13.40;;
11086;SDS011;5597;47.588;9.642;2023-03-01T06:16:25;20.73;;;15.07;;
11086;SDS011;5597;47.588;9.642;2023-03-01T06:18:51;22.00;;;13.83;;
11086;SDS011;5597;47.588;9.642;2023-03-01T06:21:16;18.80;;;13.20;;
11086;SDS011;5597;47.588;9.642;2023-03-01T06:23:42;19.50;;;12.93;;
11086;SDS011;5597;47.588;9.642;2023-03-01T06:26:08;19.23;;;14.00;;
11086;SDS011;5597;47.588;9.642;2023-03-01T06:28:34;22.33;;;14.80;;
11086;SDS011;5597;47.588;9.642;2023-03-01T06:31:00;17.37;;;13.77;;
11086;SDS011;5597;47.588;9.642;2023-03-01T06:33:26;19.97;;;14.37;;
11086;SDS011;5597;47.588;9.642;2023-03-01T06:35:54;19.83;;;14.17;;
11086;SDS011;5597;47.588;9.642;2023-03-01T06:38:20;20.00;;;14.53;;
11086;SDS011;5597;47.588;9.642;2023-03-01T06:40:50;18.27;;;13.50;;
11086;SDS011;5597;47.588;9.642;2023-03-01T06:43:18;19.40;;;14.33;;
11086;SDS011;5597;47.588;9.642;2023-03-01T06:45:43;18.07;;;13.57;;
11086;SDS011;5597;47.588;9.642;2023-03-01T06:48:09;21.27;;;14.57;;
11086;SDS011;5597;47.588;9.642;2023-03-01T06:50:35;19.23;;;14.47;;
11086;SDS011;5597;47.588;9.642;2023-03-01T06:53:01;19.80;;;14.80;;
11086;SDS011;5597;47.588;9.642;2023-03-01T06:55:27;19.43;;;14.20;;
11086;SDS011;5597;47.588;9.642;2023-03-01T06:57:54;20.47;;;14.73;;
11086;SDS011;5597;47.588;9.642;2023-03-01T07:00:21;19.30;;;13.90;;
11086;SDS011;5597;47.588;9.642;2023-03-01T07:02:47;20.47;;;14.97;;
11086;SDS011;5597;47.588;9.642;2023-03-01T07:05:12;21.70;;;15.43;;
11086;SDS011;5597;47.588;9.642;2023-03-01T07:07:38;21.07;;;14.60;;
11086;SDS011;5597;47.588;9.642;2023-03-01T07:10:04;22.10;;;14.17;;
11086;SDS011;5597;47.588;9.642;2023-03-01T07:12:30;17.90;;;13.17;;
11086;SDS011;5597;47.588;9.642;2023-03-01T07:14:55;16.67;;;13.03;;
11086;SDS011;5597;47.588;9.642;2023-03-01T07:17:21;22.37;;;15.20;;
11086;SDS011;5597;47.588;9.642;2023-03-01T07:19:46;18.17;;;13.80;;
11086;SDS011;5597;47.588;9.642;2023-03-01T07:22:12;17.93;;;13.63;;
11086;SDS011;5597;47.588;9.642;2023-03-01T07:24:37;18.63;;;13.80;;
11086;SDS011;5597;47.588;9.642;2023-03-01T07:27:03;18.37;;;13.47;;
11086;SDS011;5597;47.588;9.642;2023-03-01T07:29:29;18.00;;;13.27;;
11086;SDS011;5597;47.588;9.642;2023-03-01T07:31:55;18.53;;;13.87;;
11086;SDS011;5597;47.588;9.642;2023-03-01T07:34:20;20.27;;;13.37;;
11086;SDS011;5597;47.588;9.642;2023-03-01T07:36:46;18.10;;;13.43;;
11086;SDS011;5597;47.588;9.642;2023-03-01T07:39:12;17.33;;;13.00;;
11086;SDS011;5597;47.588;9.642;2023-03-01T07:41:38;18.93;;;13.53;;
11086;SDS011;5597;47.588;9.642;2023-03-01T07:44:03;17.17;;;13.57;;
11086;SDS011;5597;47.588;9.642;2023-03-01T07:46:29;18.93;;;13.33;;
11086;SDS011;5597;47.588;9.642;2023-03-01T07:48:54;17.60;;;12.67;;
11086;SDS011;5597;47.588;9.642;2023-03-01T07:51:20;20.03;;;14.33;;
11086;SDS011;5597;47.588;9.642;2023-03-01T07:53:46;20.90;;;15.60;;
11086;SDS011;5597;47.588;9.642;2023-03-01T07:56:13;19.00;;;13.87;;
11086;SDS011;5597;47.588;9.642;2023-03-01T07:58:41;18.33;;;13.83;;
11086;SDS011;5597;47.588;9.642;2023-03-01T08:01:08;18.27;;;13.93;;
11086;SDS011;5597;47.588;9.642;2023-03-01T08:03:35;17.23;;;13.00;;
11086;SDS011;5597;47.588;9.642;2023-03-01T08:06:02;18.30;;;13.63;;
11086;SDS011;5597;47.588;9.642;2023-03-01T08:08:29;19.07;;;13.90;;
11086;SDS011;5597;47.588;9.642;2023-03-01T08:10:56;18.40;;;13.87;;
11086;SDS011;5597;47.588;9.642;2023-03-01T08:13:23;16.70;;;12.90;;
11086;SDS011;5597;47.588;9.642;2023-03-01T08:15:49;17.87;;;12.97;;
11086;SDS011;5597;47.588;9.642;2023-03-01T08:18:17;18.20;;;13.70;;
11086;SDS011;5597;47.588;9.642;2023-03-01T08:20:44;18.93;;;14.13;;
11086;SDS011;5597;47.588;9.642;2023-03-01T08:23:10;18.93;;;13.40;;
11086;SDS011;5597;47.588;9.642;2023-03-01T08:25:36;18.77;;;13.60;;
11086;SDS011;5597;47.588;9.642;2023-03-01T08:28:02;23.67;;;15.17;;
11086;SDS011;5597;47.588;9.642;2023-03-01T08:30:28;18.30;;;13.63;;
11086;SDS011;5597;47.588;9.642;2023-03-01T08:32:54;17.93;;;13.37;;
11086;SDS011;5597;47.588;9.642;2023-03-01T08:35:20;17.60;;;13.17;;
11086;SDS011;5597;47.588;9.642;2023-03-01T08:37:46;18.47;;;13.70;;
11086;SDS011;5597;47.588;9.642;2023-03-01T08:40:12;18.17;;;13.37;;
11086;SDS011;5597;47.588;9.642;2023-03-01T08:42:38;17.27;;;13.07;;
11086;SDS011;5597;47.588;9.642;2023-03-01T08:45:05;16.23;;;12.73;;
11086;SDS011;5597;47.588;9.642;2023-03-01T08:47:32;18.80;;;13.47;;
11086;SDS011;5597;47.588;9.642;2023-03-01T08:49:58;17.77;;;13.20;;
11086;SDS011;5597;47.588;9.642;2023-03-01T08:52:24;19.53;;;14.27;;
11086;SDS011;5597;47.588;9.642;2023-03-01T08:54:51;23.60;;;13.60;;
11086;SDS011;5597;47.588;9.642;2023-03-01T08:57:16;19.43;;;14.30;;
11086;SDS011;5597;47.588;9.642;2023-03-01T08:59:42;24.33;;;17.77;;
11086;SDS011;5597;47.588;9.642;2023-03-01T09:02:12;18.37;;;13.90;;
11086;SDS011;5597;47.588;9.642;2023-03-01T09:04:39;16.97;;;12.90;;
11086;SDS011;5597;47.588;9.642;2023-03-01T09:07:06;17.53;;;13.40;;
11086;SDS011;5597;47.588;9.642;2023-03-01T09:09:32;17.40;;;12.67;;
11086;SDS011;5597;47.588;9.642;2023-03-01T09:11:57;17.00;;;13.40;;
11086;SDS011;5597;47.588;9.642;2023-03-01T09:14:23;19.50;;;13.83;;
11086;SDS011;5597;47.588;9.642;2023-03-01T09:16:49;18.07;;;13.37;;
11086;SDS011;5597;47.588;9.642;2023-03-01T09:19:15;18.73;;;14.10;;
11086;SDS011;5597;47.588;9.642;2023-03-01T09:21:41;17.57;;;13.23;;
11086;SDS011;5597;47.588;9.642;2023-03-01T09:24:18;19.30;;;13.90;;
11086;SDS011;5597;47.588;9.642;2023-03-01T09:26:45;17.27;;;12.97;;
11086;SDS011;5597;47.588;9.642;2023-03-01T09:29:11;17.63;;;13.80;;
11086;SDS011;5597;47.588;9.642;2023-03-01T09:31:37;18.77;;;14.00;;
11086;SDS011;5597;47.588;9.642;2023-03-01T09:34:03;20.03;;;13.87;;
11086;SDS011;5597;47.588;9.642;2023-03-01T09:36:29;18.27;;;14.33;;
11086;SDS011;5597;47.588;9.642;2023-03-01T09:38:56;19.73;;;13.80;;
11086;SDS011;5597;47.588;9.642;2023-03-01T09:47:02;18.03;;;12.90;;
11086;SDS011;5597;47.588;9.642;2023-03-01T09:49:35;18.23;;;12.90;;
11086;SDS011;5597;47.588;9.642;2023-03-01T09:54:46;20.00;;;14.50;;
11086;SDS011;5597;47.588;9.642;2023-03-01T09:59:59;18.13;;;13.60;;
11086;SDS011;5597;47.588;9.642;2023-03-01T10:02:48;18.23;;;13.43;;
11086;SDS011;5597;47.588;9.642;2023-03-01T10:10:47;18.80;;;13.93;;
11086;SDS011;5597;47.588;9.642;2023-03-01T10:16:01;19.13;;;14.70;;
11086;SDS011;5597;47.588;9.642;2023-03-01T10:18:35;19.17;;;14.53;;
11086;SDS011;5597;47.588;9.642;2023-03-01T10:21:07;16.50;;;12.63;;
11086;SDS011;5597;47.588;9.642;2023-03-01T10:23:40;18.73;;;13.50;;
11086;SDS011;5597;47.588;9.642;2023-03-01T10:29:03;18.10;;;12.70;;
11086;SDS011;5597;47.588;9.642;2023-03-01T10:31:37;16.20;;;12.40;;
11086;SDS011;5597;47.588;9.642;2023-03-01T10:34:18;17.30;;;12.87;;
11086;SDS011;5597;47.588;9.642;2023-03-01T10:36:50;17.20;;;12.57;;
11086;SDS011;5597;47.588;9.642;2023-03-01T10:39:22;18.00;;;13.53;;
11086;SDS011;5597;47.588;9.642;2023-03-01T10:41:54;17.23;;;13.07;;
11086;SDS011;5597;47.588;9.642;2023-03-01T10:44:38;18.97;;;13.10;;
11086;SDS011;5597;47.588;9.642;2023-03-01T10:47:08;18.10;;;13.77;;
11086;SDS011;5597;47.588;9.642;2023-03-01T10:49:58;18.60;;;13.40;;
11086;SDS011;5597;47.588;9.642;2023-03-01T10:52:26;17.33;;;13.40;;
11086;SDS011;5597;47.588;9.642;2023-03-01T10:55:30;19.20;;;13.73;;
11086;SDS011;5597;47.588;9.642;2023-03-01T10:57:50;19.23;;;14.53;;
11086;SDS011;5597;47.588;9.642;2023-03-01T11:00:30;18.83;;;13.83;;
11086;SDS011;5597;47.588;9.642;2023-03-01T11:05:25;17.50;;;13.40;;
11086;SDS011;5597;47.588;9.642;2023-03-01T11:10:25;17.27;;;12.50;;
11086;SDS011;5597;47.588;9.642;2023-03-01T11:12:52;18.30;;;12.43;;
11086;SDS011;5597;47.588;9.642;2023-03-01T11:15:30;17.13;;;12.77;;
11086;SDS011;5597;47.588;9.642;2023-03-01T11:17:55;18.37;;;13.70;;
11086;SDS011;5597;47.588;9.642;2023-03-01T11:20:32;16.73;;;12.70;;
11086;SDS011;5597;47.588;9.642;2023-03-01T11:23:02;21.50;;;15.13;;
11086;SDS011;5597;47.588;9.642;2023-03-01T11:25:37;19.10;;;14.30;;
11086;SDS011;5597;47.588;9.642;2023-03-01T11:28:07;18.73;;;13.80;;
11086;SDS011;5597;47.588;9.642;2023-03-01T11:30:39;17.20;;;13.43;;
11086;SDS011;5597;47.588;9.642;2023-03-01T11:38:30;16.63;;;12.93;;
11086;SDS011;5597;47.588;9.642;2023-03-01T11:57:27;18.30;;;13.40;;
11086;SDS011;5597;47.588;9.642;2023-03-01T12:00:11;17.50;;;12.97;;
11086;SDS011;5597;47.588;9.642;2023-03-01T12:02:56;17.83;;;13.70;;
11086;SDS011;5597;47.588;9.642;2023-03-01T12:05:28;23.27;;;15.67;;
11086;SDS011;5597;47.588;9.642;2023-03-01T12:08:20;18.37;;;13.03;;
11086;SDS011;5597;47.588;9.642;2023-03-01T12:14:02;18.83;;;14.33;;
11086;SDS011;5597;47.588;9.642;2023-03-01T12:23:11;21.20;;;14.70;;
11086;SDS011;5597;47.588;9.642;2023-03-01T12:39:39;22.00;;;15.30;;
11086;SDS011;5597;47.588;9.642;2023-03-01T12:51:06;20.13;;;14.83;;
11086;SDS011;5597;47.588;9.642;2023-03-01T12:53:36;19.40;;;14.30;;
11086;SDS011;5597;47.588;9.642;2023-03-01T12:56:13;20.40;;;16.13;;
11086;SDS011;5597;47.588;9.642;2023-03-01T13:11:59;19.57;;;15.10;;
11086;SDS011;5597;47.588;9.642;2023-03-01T13:16:51;21.80;;;16.37;;
11086;SDS011;5597;47.588;9.642;2023-03-01T13:19:21;20.20;;;14.90;;
11086;SDS011;5597;47.588;9.642;2023-03-01T13:21:49;18.87;;;14.43;;
11086;SDS011;5597;47.588;9.642;2023-03-01T13:29:51;21.50;;;15.77;;
11086;SDS011;5597;47.588;9.642;2023-03-01T13:35:03;28.20;;;20.10;;
11086;SDS011;5597;47.588;9.642;2023-03-01T13:41:02;21.57;;;16.40;;
11086;SDS011;5597;47.588;9.642;2023-03-01T13:43:29;21.23;;;15.50;;
11086;SDS011;5597;47.588;9.642;2023-03-01T13:45:56;24.97;;;17.90;;
11086;SDS011;5597;47.588;9.642;2023-03-01T13:48:27;20.00;;;15.73;;
11086;SDS011;5597;47.588;9.642;2023-03-01T13:50:58;19.27;;;15.13;;
11086;SDS011;5597;47.588;9.642;2023-03-01T13:53:29;19.40;;;14.67;;
11086;SDS011;5597;47.588;9.642;2023-03-01T13:55:59;19.63;;;14.30;;
11086;SDS011;5597;47.588;9.642;2023-03-01T13:58:31;20.17;;;14.57;;
11086;SDS011;5597;47.588;9.642;2023-03-01T14:01:18;21.23;;;15.40;;
11086;SDS011;5597;47.588;9.642;2023-03-01T14:03:53;19.73;;;15.03;;
11086;SDS011;5597;47.588;9.642;2023-03-01T14:06:20;21.40;;;15.57;;
11086;SDS011;5597;47.588;9.642;2023-03-01T14:09:05;20.50;;;15.67;;
11086;SDS011;5597;47.588;9.642;2023-03-01T14:14:19;19.37;;;13.83;;
11086;SDS011;5597;47.588;9.642;2023-03-01T14:19:46;20.13;;;15.67;;
11086;SDS011;5597;47.588;9.642;2023-03-01T14:22:23;19.63;;;15.27;;
11086;SDS011;5597;47.588;9.642;2023-03-01T14:24:56;20.63;;;15.50;;
11086;SDS011;5597;47.588;9.642;2023-03-01T14:27:35;19.40;;;14.83;;
11086;SDS011;5597;47.588;9.642;2023-03-01T14:30:10;19.33;;;14.77;;
11086;SDS011;5597;47.588;9.642;2023-03-01T14:32:47;22.13;;;15.30;;
11086;SDS011;5597;47.588;9.642;2023-03-01T14:35:22;20.83;;;15.67;;
11086;SDS011;5597;47.588;9.642;2023-03-01T14:37:50;20.80;;;14.63;;
11086;SDS011;5597;47.588;9.642;2023-03-01T14:42:50;18.97;;;14.97;;
11086;SDS011;5597;47.588;9.642;2023-03-01T14:45:17;18.77;;;14.03;;
11086;SDS011;5597;47.588;9.642;2023-03-01T14:47:43;16.47;;;13.43;;
11086;SDS011;5597;47.588;9.642;2023-03-01T14:50:26;17.20;;;13.87;;
11086;SDS011;5597;47.588;9.642;2023-03-01T14:52:55;16.53;;;12.60;;
11086;SDS011;5597;47.588;9.642;2023-03-01T14:55:34;18.47;;;13.30;;
11086;SDS011;5597;47.588;9.642;2023-03-01T14:58:05;19.13;;;13.97;;
11086;SDS011;5597;47.588;9.642;2023-03-01T15:00:36;18.87;;;14.27;;
11086;SDS011;5597;47.588;9.642;2023-03-01T15:03:11;19.10;;;14.67;;
11086;SDS011;5597;47.588;9.642;2023-03-01T15:05:42;19.37;;;14.67;;
11086;SDS011;5597;47.588;9.642;2023-03-01T15:08:13;17.53;;;13.60;;
11086;SDS011;5597;47.588;9.642;2023-03-01T15:10:56;17.43;;;13.30;;
11086;SDS011;5597;47.588;9.642;2023-03-01T15:13:31;18.30;;;14.07;;
11086;SDS011;5597;47.588;9.642;2023-03-01T15:16:05;18.90;;;14.27;;
11086;SDS011;5597;47.588;9.642;2023-03-01T15:19:00;20.63;;;14.87;;
11086;SDS011;5597;47.588;9.642;2023-03-01T15:21:32;19.13;;;14.33;;
11086;SDS011;5597;47.588;9.642;2023-03-01T15:24:08;20.50;;;14.20;;
11086;SDS011;5597;47.588;9.642;2023-03-01T15:26:52;18.30;;;14.37;;
11086;SDS011;5597;47.588;9.642;2023-03-01T15:29:26;18.00;;;14.27;;
11086;SDS011;5597;47.588;9.642;2023-03-01T15:31:58;18.03;;;13.60;;
11086;SDS011;5597;47.588;9.642;2023-03-01T15:34:34;18.90;;;14.07;;
11086;SDS011;5597;47.588;9.642;2023-03-01T15:37:04;17.90;;;14.03;;
11086;SDS011;5597;47.588;9.642;2023-03-01T15:42:47;20.90;;;14.87;;
11086;SDS011;5597;47.588;9.642;2023-03-01T15:45:09;18.73;;;14.00;;
11086;SDS011;5597;47.588;9.642;2023-03-01T15:47:52;22.33;;;15.00;;
11086;SDS011;5597;47.588;9.642;2023-03-01T15:52:45;22.90;;;15.83;;
11086;SDS011;5597;47.588;9.642;2023-03-01T15:55:21;20.40;;;15.23;;
11086;SDS011;5597;47.588;9.642;2023-03-01T15:57:49;20.97;;;15.10;;
11086;SDS011;5597;47.588;9.642;2023-03-01T16:00:22;18.23;;;14.37;;
11086;SDS011;5597;47.588;9.642;2023-03-01T16:02:48;19.50;;;14.67;;
11086;SDS011;5597;47.588;9.642;2023-03-01T16:05:23;19.17;;;14.73;;
11086;SDS011;5597;47.588;9.642;2023-03-01T16:07:51;21.53;;;15.23;;
11086;SDS011;5597;47.588;9.642;2023-03-01T16:10:17;21.13;;;15.23;;
11086;SDS011;5597;47.588;9.642;2023-03-01T16:12:44;19.60;;;14.00;;
11086;SDS011;5597;47.588;9.642;2023-03-01T16:15:17;16.77;;;12.97;;
11086;SDS011;5597;47.588;9.642;2023-03-01T16:17:45;21.27;;;14.97;;
11086;SDS011;5597;47.588;9.642;2023-03-01T16:20:10;19.13;;;13.80;;
11086;SDS011;5597;47.588;9.642;2023-03-01T16:22:36;18.60;;;14.23;;
11086;SDS011;5597;47.588;9.642;2023-03-01T16:25:02;21.00;;;14.80;;
11086;SDS011;5597;47.588;9.642;2023-03-01T16:27:28;20.63;;;15.57;;
11086;SDS011;5597;47.588;9.642;2023-03-01T16:29:54;17.57;;;13.17;;
11086;SDS011;5597;47.588;9.642;2023-03-01T16:32:19;20.53;;;15.07;;
11086;SDS011;5597;47.588;9.642;2023-03-01T16:34:45;20.77;;;15.30;;
11086;SDS011;5597;47.588;9.642;2023-03-01T16:37:14;22.33;;;15.63;;
11086;SDS011;5597;47.588;9.642;2023-03-01T16:39:39;21.37;;;15.57;;
11086;SDS011;5597;47.588;9.642;2023-03-01T16:42:05;22.03;;;15.97;;
11086;SDS011;5597;47.588;9.642;2023-03-01T16:44:31;18.70;;;14.33;;
11086;SDS011;5597;47.588;9.642;2023-03-01T16:46:56;20.77;;;15.23;;
11086;SDS011;5597;47.588;9.642;2023-03-01T16:49:22;19.60;;;14.47;;
11086;SDS011;5597;47.588;9.642;2023-03-01T16:51:47;20.00;;;14.67;;